Zim, Minnesota
Current Conditions -  °F | °C
As of 4:53 PM on Wednesday 17 Dec 2014 (Local Time) from KHIB Reporting Station
Clear Clear  
Wind Chill: 15°   Ceiling: Unl
Heat Index: 15°   Visibility: 10mi
Dew Point:   Wind: 3mph
Humidity: 77%   Direction: 330°NNW
Pressure: 30.28"   Gusts: NA
Location:  47.2679°N, 92.6342°W
Report Text: KHIB 172253Z AUTO 33003KT 10SM CLR M09/M13 A3028 RMK AO2 SLP285 T10941128
Loading
Personal Weather Stations






























Interactive Weather Map New forecast layout! Learn more

10-Day Weather Forecast

Advertisements
Track Severe Weather on mobile